Time,TemperatureF,DewpointF,PressureIn,WindDirection,WindDirectionDegrees,WindSpeedMPH,WindSpeedGustMPH,Humidity,HourlyPrecipIn,Conditions,Clouds,dailyrainin,SoftwareType,DateUTC
2013-10-08 00:01:00,62.9,62.0,29.61,SE,135,11.0,19.0,98,0.00,,,0.00,Rainwise IP-100,2013-10-08 04:01:00,
2013-10-08 00:06:00,63.1,62.0,29.61,SSE,157,0.0,11.0,98,0.12,,,0.03,Rainwise IP-100,2013-10-08 04:06:00,
2013-10-08 00:11:00,63.3,62.0,29.61,SSE,157,5.0,6.0,98,0.66,,,0.14,Rainwise IP-100,2013-10-08 04:11:00,
2013-10-08 00:16:00,63.7,63.0,29.61,SSW,202,13.0,14.0,98,0.96,,,0.19,Rainwise IP-100,2013-10-08 04:16:00,
2013-10-08 00:21:00,63.8,63.0,29.62,SSE,157,14.0,18.0,98,0.60,,,0.22,Rainwise IP-100,2013-10-08 04:21:00,
2013-10-08 00:26:00,63.8,63.0,29.62,SE,135,2.0,19.0,98,0.30,,,0.23,Rainwise IP-100,2013-10-08 04:26:00,
2013-10-08 00:31:00,63.8,63.0,29.62,SSW,202,7.0,17.0,98,0.12,,,0.23,Rainwise IP-100,2013-10-08 04:31:00,
2013-10-08 00:36:00,63.8,63.0,29.63,SSE,157,4.0,20.0,98,0.00,,,0.23,Rainwise IP-100,2013-10-08 04:36:00,
2013-10-08 00:41:00,63.6,63.0,29.63,SSE,157,8.0,14.0,98,0.00,,,0.23,Rainwise IP-100,2013-10-08 04:41:00,
2013-10-08 00:46:00,63.3,62.0,29.63,ESE,112,5.0,20.0,98,0.00,,,0.23,Rainwise IP-100,2013-10-08 04:46:00,
2013-10-08 00:51:00,63.1,62.0,29.62,SW,225,9.0,13.0,98,0.06,,,0.24,Rainwise IP-100,2013-10-08 04:51:00,
2013-10-08 00:56:00,63.2,62.0,29.64,SW,225,5.0,19.0,98,0.06,,,0.24,Rainwise IP-100,2013-10-08 04:56:00,
2013-10-08 01:01:00,63.2,62.0,29.64,West,270,2.0,11.0,98,0.00,,,0.24,Rainwise IP-100,2013-10-08 05:01:00,
2013-10-08 01:06:00,62.9,62.0,29.64,SW,225,16.0,16.0,98,0.00,,,0.24,Rainwise IP-100,2013-10-08 05:06:00,
2013-10-08 01:11:00,62.8,62.0,29.63,SSE,157,4.0,16.0,98,0.00,,,0.24,Rainwise IP-100,2013-10-08 05:11:00,
2013-10-08 01:16:00,62.6,62.0,29.63,WSW,247,4.0,10.0,98,0.00,,,0.24,Rainwise IP-100,2013-10-08 05:16:00,
2013-10-08 01:21:00,62.4,62.0,29.62,SSE,157,7.0,16.0,98,0.06,,,0.25,Rainwise IP-100,2013-10-08 05:21:00,
2013-10-08 01:26:00,62.2,61.0,29.62,ESE,112,4.0,12.0,98,0.06,,,0.25,Rainwise IP-100,2013-10-08 05:26:00,
2013-10-08 01:31:00,61.9,61.0,29.62,WSW,247,2.0,8.0,98,0.00,,,0.25,Rainwise IP-100,2013-10-08 05:31:00,
2013-10-08 01:36:00,61.7,61.0,29.62,SSW,202,5.0,13.0,98,0.00,,,0.25,Rainwise IP-100,2013-10-08 05:36:00,
2013-10-08 01:41:00,61.5,61.0,29.63,SSE,157,2.0,6.0,98,0.00,,,0.25,Rainwise IP-100,2013-10-08 05:41:00,
2013-10-08 01:46:00,61.2,60.0,29.63,SSW,202,3.0,7.0,98,0.00,,,0.25,Rainwise IP-100,2013-10-08 05:46:00,
2013-10-08 01:51:00,60.9,60.0,29.62,South,180,2.0,9.0,98,0.00,,,0.25,Rainwise IP-100,2013-10-08 05:51:00,
2013-10-08 01:56:00,60.6,60.0,29.62,South,180,6.0,10.0,98,0.00,,,0.25,Rainwise IP-100,2013-10-08 05:56:00,
2013-10-08 02:01:00,60.4,60.0,29.62,South,180,4.0,9.0,98,0.00,,,0.25,Rainwise IP-100,2013-10-08 06:01:00,
2013-10-08 02:06:00,60.2,59.0,29.63,SSE,157,3.0,12.0,98,0.12,,,0.27,Rainwise IP-100,2013-10-08 06:06:00,
2013-10-08 02:11:00,60.2,59.0,29.63,West,270,2.0,9.0,98,0.18,,,0.28,Rainwise IP-100,2013-10-08 06:11:00,
2013-10-08 02:16:00,60.1,59.0,29.63,WSW,247,0.0,6.0,98,0.12,,,0.29,Rainwise IP-100,2013-10-08 06:16:00,
2013-10-08 02:21:00,60.1,59.0,29.63,SE,135,3.0,9.0,98,0.06,,,0.29,Rainwise IP-100,2013-10-08 06:21:00,
2013-10-08 02:26:00,60.1,59.0,29.62,SSW,202,2.0,6.0,98,0.00,,,0.29,Rainwise IP-100,2013-10-08 06:26:00,
2013-10-08 02:31:00,60.1,59.0,29.62,South,180,3.0,8.0,98,0.00,,,0.29,Rainwise IP-100,2013-10-08 06:31:00,
2013-10-08 02:36:00,59.9,59.0,29.62,WSW,247,1.0,7.0,98,0.00,,,0.29,Rainwise IP-100,2013-10-08 06:36:00,
2013-10-08 02:41:00,59.9,59.0,29.62,SSW,202,3.0,6.0,98,0.00,,,0.29,Rainwise IP-100,2013-10-08 06:41:00,
2013-10-08 02:46:00,59.7,59.0,29.62,SW,225,4.0,5.0,98,0.00,,,0.29,Rainwise IP-100,2013-10-08 06:46:00,
2013-10-08 02:51:00,59.6,59.0,29.62,South,180,2.0,5.0,98,0.00,,,0.29,Rainwise IP-100,2013-10-08 06:51:00,
2013-10-08 02:56:00,59.5,59.0,29.62,SE,135,2.0,6.0,98,0.00,,,0.29,Rainwise IP-100,2013-10-08 06:56:00,
2013-10-08 03:01:00,59.4,59.0,29.62,South,180,1.0,5.0,98,0.00,,,0.29,Rainwise IP-100,2013-10-08 07:01:00,
2013-10-08 03:06:00,59.3,58.0,29.62,SSE,157,4.0,4.0,98,0.00,,,0.29,Rainwise IP-100,2013-10-08 07:06:00,
2013-10-08 03:11:00,59.1,58.0,29.62,SSW,202,2.0,6.0,98,0.00,,,0.29,Rainwise IP-100,2013-10-08 07:11:00,
2013-10-08 03:16:00,58.9,58.0,29.62,South,180,2.0,4.0,98,0.00,,,0.29,Rainwise IP-100,2013-10-08 07:16:00,
2013-10-08 03:21:00,58.9,58.0,29.63,WSW,247,1.0,4.0,98,0.00,,,0.29,Rainwise IP-100,2013-10-08 07:21:00,
2013-10-08 03:26:00,58.8,58.0,29.63,SSE,157,0.0,6.0,98,0.00,,,0.29,Rainwise IP-100,2013-10-08 07:26:00,
2013-10-08 03:31:00,58.6,58.0,29.64,SSW,202,0.0,2.0,98,0.00,,,0.29,Rainwise IP-100,2013-10-08 07:31:00,
2013-10-08 03:36:00,58.6,58.0,29.64,SE,135,2.0,4.0,98,0.00,,,0.29,Rainwise IP-100,2013-10-08 07:36:00,
2013-10-08 03:41:00,58.4,57.0,29.64,SE,135,1.0,4.0,98,0.00,,,0.29,Rainwise IP-100,2013-10-08 07:41:00,
2013-10-08 03:46:00,58.3,57.0,29.64,SSE,157,4.0,4.0,98,0.00,,,0.29,Rainwise IP-100,2013-10-08 07:46:00,
2013-10-08 03:51:00,58.3,57.0,29.64,SSE,157,0.0,4.0,98,0.00,,,0.29,Rainwise IP-100,2013-10-08 07:51:00,
2013-10-08 03:56:00,58.3,57.0,29.64,SSW,202,1.0,2.0,98,0.00,,,0.29,Rainwise IP-100,2013-10-08 07:56:00,
2013-10-08 04:01:00,58.3,57.0,29.65,SSW,202,0.0,4.0,98,0.00,,,0.29,Rainwise IP-100,2013-10-08 08:01:00,
2013-10-08 04:06:00,58.4,57.0,29.65,WSW,247,0.0,2.0,98,0.00,,,0.29,Rainwise IP-100,2013-10-08 08:06:00,
2013-10-08 04:11:00,58.4,57.0,29.66,WSW,247,0.0,2.0,98,0.00,,,0.29,Rainwise IP-100,2013-10-08 08:11:00,
2013-10-08 04:16:00,58.5,58.0,29.66,WSW,247,0.0,2.0,98,0.00,,,0.29,Rainwise IP-100,2013-10-08 08:16:00,
2013-10-08 04:21:00,58.6,58.0,29.66,WSW,247,0.0,0.0,98,0.00,,,0.29,Rainwise IP-100,2013-10-08 08:21:00,
2013-10-08 04:26:00,58.6,58.0,29.66,WSW,247,0.0,0.0,98,0.00,,,0.29,Rainwise IP-100,2013-10-08 08:26:00,
2013-10-08 04:31:00,58.6,58.0,29.67,SE,135,0.0,2.0,98,0.00,,,0.29,Rainwise IP-100,2013-10-08 08:31:00,
2013-10-08 04:36:00,58.6,58.0,29.67,SE,135,0.0,1.0,98,0.00,,,0.29,Rainwise IP-100,2013-10-08 08:36:00,
2013-10-08 04:41:00,58.6,58.0,29.67,SE,135,0.0,0.0,98,0.00,,,0.29,Rainwise IP-100,2013-10-08 08:41:00,
2013-10-08 04:46:00,58.5,58.0,29.68,SE,135,0.0,0.0,98,0.00,,,0.29,Rainwise IP-100,2013-10-08 08:46:00,
2013-10-08 04:51:00,58.4,57.0,29.68,SE,135,0.0,0.0,98,0.00,,,0.29,Rainwise IP-100,2013-10-08 08:51:00,
2013-10-08 04:56:00,58.3,57.0,29.68,NNW,337,1.0,2.0,98,0.00,,,0.29,Rainwise IP-100,2013-10-08 08:56:00,
2013-10-08 05:01:00,58.2,57.0,29.68,WNW,292,2.0,2.0,98,0.00,,,0.29,Rainwise IP-100,2013-10-08 09:01:00,
2013-10-08 05:06:00,57.8,57.0,29.68,West,270,1.0,3.0,97,0.00,,,0.29,Rainwise IP-100,2013-10-08 09:06:00,
2013-10-08 05:11:00,57.6,57.0,29.68,WSW,247,2.0,2.0,97,0.00,,,0.29,Rainwise IP-100,2013-10-08 09:11:00,
2013-10-08 05:16:00,57.3,56.0,29.69,WSW,247,1.0,3.0,97,0.00,,,0.29,Rainwise IP-100,2013-10-08 09:16:00,
2013-10-08 05:21:00,56.9,56.0,29.69,WNW,292,2.0,2.0,97,0.00,,,0.29,Rainwise IP-100,2013-10-08 09:21:00,
2013-10-08 05:26:00,56.5,56.0,29.70,WSW,247,3.0,9.0,97,0.00,,,0.29,Rainwise IP-100,2013-10-08 09:26:00,
2013-10-08 05:31:00,56.3,55.0,29.70,WSW,247,3.0,9.0,97,0.00,,,0.29,Rainwise IP-100,2013-10-08 09:31:00,
2013-10-08 05:36:00,56.2,55.0,29.70,West,270,4.0,4.0,97,0.00,,,0.29,Rainwise IP-100,2013-10-08 09:36:00,
2013-10-08 05:41:00,56.2,55.0,29.70,West,270,4.0,7.0,97,0.00,,,0.29,Rainwise IP-100,2013-10-08 09:41:00,
2013-10-08 05:46:00,56.1,55.0,29.70,South,180,1.0,5.0,97,0.00,,,0.29,Rainwise IP-100,2013-10-08 09:46:00,
2013-10-08 05:51:00,56.1,55.0,29.71,WSW,247,2.0,5.0,97,0.00,,,0.29,Rainwise IP-100,2013-10-08 09:51:00,
2013-10-08 05:56:00,55.9,55.0,29.71,WSW,247,1.0,4.0,97,0.00,,,0.29,Rainwise IP-100,2013-10-08 09:56:00,
2013-10-08 06:01:00,55.9,55.0,29.71,West,270,2.0,4.0,97,0.00,,,0.29,Rainwise IP-100,2013-10-08 10:01:00,
2013-10-08 06:06:00,55.8,55.0,29.72,West,270,4.0,4.0,97,0.00,,,0.29,Rainwise IP-100,2013-10-08 10:06:00,
2013-10-08 06:11:00,55.9,55.0,29.72,WSW,247,4.0,5.0,97,0.00,,,0.29,Rainwise IP-100,2013-10-08 10:11:00,
2013-10-08 06:16:00,56.0,54.0,29.72,WSW,247,5.0,5.0,94,0.00,,,0.29,Rainwise IP-100,2013-10-08 10:16:00,
2013-10-08 06:21:00,56.2,54.0,29.72,WSW,247,2.0,6.0,93,0.00,,,0.29,Rainwise IP-100,2013-10-08 10:21:00,
2013-10-08 06:26:00,56.1,53.0,29.73,WSW,247,3.0,6.0,91,0.00,,,0.29,Rainwise IP-100,2013-10-08 10:26:00,
2013-10-08 06:31:00,56.0,53.0,29.73,WSW,247,4.0,6.0,91,0.00,,,0.29,Rainwise IP-100,2013-10-08 10:31:00,
2013-10-08 06:36:00,55.9,53.0,29.74,WSW,247,4.0,8.0,91,0.00,,,0.29,Rainwise IP-100,2013-10-08 10:36:00,
2013-10-08 06:41:00,55.9,53.0,29.74,WSW,247,4.0,6.0,90,0.00,,,0.29,Rainwise IP-100,2013-10-08 10:41:00,
2013-10-08 06:46:00,56.1,53.0,29.74,WSW,247,5.0,7.0,88,0.00,,,0.29,Rainwise IP-100,2013-10-08 10:46:00,
2013-10-08 06:51:00,56.1,51.0,29.74,West,270,6.0,7.0,85,0.00,,,0.29,Rainwise IP-100,2013-10-08 10:51:00,
2013-10-08 06:56:00,56.2,51.0,29.75,WSW,247,2.0,7.0,84,0.00,,,0.29,Rainwise IP-100,2013-10-08 10:56:00,
2013-10-08 07:01:00,55.9,52.0,29.75,West,270,3.0,6.0,86,0.00,,,0.29,Rainwise IP-100,2013-10-08 11:01:00,
2013-10-08 07:06:00,55.5,53.0,29.75,West,270,2.0,4.0,89,0.00,,,0.29,Rainwise IP-100,2013-10-08 11:06:00,
2013-10-08 07:11:00,55.1,53.0,29.75,WNW,292,1.0,3.0,91,0.00,,,0.29,Rainwise IP-100,2013-10-08 11:11:00,
2013-10-08 07:16:00,54.6,53.0,29.76,WSW,247,2.0,4.0,93,0.00,,,0.29,Rainwise IP-100,2013-10-08 11:16:00,
2013-10-08 07:21:00,54.1,53.0,29.76,West,270,0.0,3.0,95,0.00,,,0.29,Rainwise IP-100,2013-10-08 11:21:00,
2013-10-08 07:26:00,53.8,52.0,29.77,West,270,0.0,2.0,96,0.00,,,0.29,Rainwise IP-100,2013-10-08 11:26:00,
2013-10-08 07:31:00,53.4,53.0,29.77,West,270,1.0,2.0,97,0.00,,,0.29,Rainwise IP-100,2013-10-08 11:31:00,
2013-10-08 07:36:00,53.5,53.0,29.77,West,270,1.0,4.0,97,0.00,,,0.29,Rainwise IP-100,2013-10-08 11:36:00,
2013-10-08 07:41:00,53.8,52.0,29.77,WSW,247,6.0,6.0,96,0.00,,,0.29,Rainwise IP-100,2013-10-08 11:41:00,
2013-10-08 07:46:00,54.7,51.0,29.77,SW,225,4.0,8.0,88,0.00,,,0.29,Rainwise IP-100,2013-10-08 11:46:00,
2013-10-08 07:51:00,55.1,50.0,29.78,West,270,3.0,9.0,84,0.00,,,0.29,Rainwise IP-100,2013-10-08 11:51:00,
2013-10-08 07:56:00,55.1,50.0,29.78,WSW,247,6.0,7.0,81,0.00,,,0.29,Rainwise IP-100,2013-10-08 11:56:00,
2013-10-08 08:01:00,55.2,49.0,29.79,WSW,247,5.0,7.0,79,0.00,,,0.29,Rainwise IP-100,2013-10-08 12:01:00,
2013-10-08 08:06:00,55.3,47.0,29.79,SW,225,3.0,10.0,76,0.00,,,0.29,Rainwise IP-100,2013-10-08 12:06:00,
2013-10-08 08:11:00,55.4,49.0,29.80,WSW,247,5.0,9.0,79,0.00,,,0.29,Rainwise IP-100,2013-10-08 12:11:00,
2013-10-08 08:16:00,55.9,49.0,29.81,WSW,247,5.0,7.0,78,0.00,,,0.29,Rainwise IP-100,2013-10-08 12:16:00,
2013-10-08 08:22:00,56.1,49.0,29.82,West,270,4.0,6.0,78,0.00,,,0.29,Rainwise IP-100,2013-10-08 12:22:00,
2013-10-08 08:27:00,56.3,48.0,29.82,WSW,247,6.0,9.0,75,0.00,,,0.29,Rainwise IP-100,2013-10-08 12:27:00,
2013-10-08 08:32:00,56.3,47.0,29.83,West,270,2.0,9.0,73,0.00,,,0.29,Rainwise IP-100,2013-10-08 12:32:00,
2013-10-08 08:37:00,56.4,49.0,29.84,West,270,5.0,7.0,75,0.00,,,0.29,Rainwise IP-100,2013-10-08 12:37:00,
2013-10-08 08:42:00,56.4,47.0,29.84,WSW,247,7.0,8.0,72,0.00,,,0.29,Rainwise IP-100,2013-10-08 12:42:00,
2013-10-08 08:47:00,56.5,47.0,29.85,WSW,247,6.0,9.0,71,0.00,,,0.29,Rainwise IP-100,2013-10-08 12:47:00,
2013-10-08 08:52:00,56.5,48.0,29.86,WSW,247,2.0,7.0,73,0.00,,,0.29,Rainwise IP-100,2013-10-08 12:52:00,
2013-10-08 08:57:00,56.6,48.0,29.86,SW,225,3.0,8.0,73,0.00,,,0.29,Rainwise IP-100,2013-10-08 12:57:00,
2013-10-08 09:02:00,56.6,47.0,29.86,WSW,247,6.0,7.0,72,0.00,,,0.29,Rainwise IP-100,2013-10-08 13:02:00,
2013-10-08 09:07:00,56.4,47.0,29.86,WSW,247,3.0,9.0,71,0.00,,,0.29,Rainwise IP-100,2013-10-08 13:07:00,
2013-10-08 09:12:00,56.1,47.0,29.87,West,270,6.0,9.0,71,0.00,,,0.29,Rainwise IP-100,2013-10-08 13:12:00,
2013-10-08 09:17:00,56.2,47.0,29.87,WSW,247,3.0,8.0,73,0.00,,,0.29,Rainwise IP-100,2013-10-08 13:17:00,
2013-10-08 09:22:00,56.4,47.0,29.87,WSW,247,6.0,7.0,70,0.00,,,0.29,Rainwise IP-100,2013-10-08 13:22:00,
2013-10-08 09:27:00,56.6,47.0,29.87,SSW,202,4.0,8.0,70,0.00,,,0.29,Rainwise IP-100,2013-10-08 13:27:00,
2013-10-08 09:32:00,56.7,46.0,29.88,SSW,202,4.0,9.0,68,0.00,,,0.29,Rainwise IP-100,2013-10-08 13:32:00,
2013-10-08 09:37:00,56.7,47.0,29.88,WSW,247,4.0,8.0,72,0.00,,,0.29,Rainwise IP-100,2013-10-08 13:37:00,
2013-10-08 09:42:00,56.7,46.0,29.88,WSW,247,4.0,9.0,68,0.00,,,0.29,Rainwise IP-100,2013-10-08 13:42:00,
2013-10-08 09:47:00,56.8,46.0,29.88,SW,225,4.0,9.0,67,0.00,,,0.29,Rainwise IP-100,2013-10-08 13:47:00,
2013-10-08 09:52:00,56.8,46.0,29.89,West,270,6.0,9.0,68,0.00,,,0.29,Rainwise IP-100,2013-10-08 13:52:00,
2013-10-08 09:57:00,56.9,48.0,29.89,WNW,292,3.0,7.0,72,0.00,,,0.29,Rainwise IP-100,2013-10-08 13:57:00,
2013-10-08 10:02:00,57.0,47.0,29.89,WSW,247,2.0,6.0,68,0.00,,,0.29,Rainwise IP-100,2013-10-08 14:02:00,
2013-10-08 10:07:00,57.2,47.0,29.89,West,270,5.0,6.0,69,0.00,,,0.29,Rainwise IP-100,2013-10-08 14:07:00,
2013-10-08 10:12:00,57.1,47.0,29.89,WSW,247,6.0,6.0,71,0.00,,,0.29,Rainwise IP-100,2013-10-08 14:12:00,
2013-10-08 10:17:00,57.3,46.0,29.89,West,270,2.0,7.0,67,0.00,,,0.29,Rainwise IP-100,2013-10-08 14:17:00,
2013-10-08 10:22:00,57.5,47.0,29.89,WSW,247,4.0,7.0,69,0.00,,,0.29,Rainwise IP-100,2013-10-08 14:22:00,
2013-10-08 10:27:00,57.7,47.0,29.90,WSW,247,4.0,6.0,67,0.00,,,0.29,Rainwise IP-100,2013-10-08 14:27:00,
2013-10-08 10:32:00,57.8,47.0,29.90,SW,225,4.0,6.0,66,0.00,,,0.29,Rainwise IP-100,2013-10-08 14:32:00,
2013-10-08 10:37:00,57.5,44.0,29.90,West,270,2.0,9.0,61,0.00,,,0.29,Rainwise IP-100,2013-10-08 14:37:00,
2013-10-08 10:42:00,57.3,44.0,29.90,West,270,5.0,11.0,62,0.00,,,0.29,Rainwise IP-100,2013-10-08 14:42:00,
2013-10-08 10:47:00,57.4,46.0,29.90,WSW,247,4.0,11.0,64,0.00,,,0.29,Rainwise IP-100,2013-10-08 14:47:00,
2013-10-08 10:52:00,57.5,46.0,29.90,WSW,247,4.0,9.0,64,0.00,,,0.29,Rainwise IP-100,2013-10-08 14:52:00,
2013-10-08 10:57:00,57.8,45.0,29.90,WNW,292,1.0,9.0,63,0.00,,,0.29,Rainwise IP-100,2013-10-08 14:57:00,
2013-10-08 11:02:00,57.9,44.0,29.90,WNW,292,1.0,9.0,59,0.00,,,0.29,Rainwise IP-100,2013-10-08 15:02:00,
2013-10-08 11:07:00,58.1,45.0,29.91,WSW,247,2.0,11.0,61,0.00,,,0.29,Rainwise IP-100,2013-10-08 15:07:00,
2013-10-08 11:12:00,58.1,44.0,29.91,West,270,6.0,11.0,60,0.00,,,0.29,Rainwise IP-100,2013-10-08 15:12:00,
2013-10-08 11:17:00,57.9,45.0,29.92,SSW,202,2.0,9.0,61,0.00,,,0.29,Rainwise IP-100,2013-10-08 15:17:00,
2013-10-08 11:22:00,57.9,45.0,29.92,WSW,247,6.0,9.0,61,0.00,,,0.29,Rainwise IP-100,2013-10-08 15:22:00,
2013-10-08 11:27:00,57.8,44.0,29.92,SW,225,6.0,9.0,60,0.00,,,0.29,Rainwise IP-100,2013-10-08 15:27:00,
2013-10-08 11:32:00,57.9,45.0,29.92,WNW,292,2.0,8.0,62,0.00,,,0.29,Rainwise IP-100,2013-10-08 15:32:00,
2013-10-08 11:37:00,58.2,45.0,29.92,SW,225,4.0,9.0,62,0.00,,,0.29,Rainwise IP-100,2013-10-08 15:37:00,
2013-10-08 11:42:00,58.1,45.0,29.92,West,270,9.0,9.0,62,0.00,,,0.29,Rainwise IP-100,2013-10-08 15:42:00,
2013-10-08 11:47:00,58.1,46.0,29.92,WSW,247,3.0,9.0,63,0.00,,,0.29,Rainwise IP-100,2013-10-08 15:47:00,
2013-10-08 11:52:00,58.5,45.0,29.92,West,270,7.0,7.0,60,0.00,,,0.29,Rainwise IP-100,2013-10-08 15:52:00,
2013-10-08 11:57:00,58.7,47.0,29.92,SW,225,6.0,7.0,64,0.00,,,0.29,Rainwise IP-100,2013-10-08 15:57:00,
2013-10-08 12:02:00,58.9,45.0,29.92,West,270,2.0,9.0,60,0.00,,,0.29,Rainwise IP-100,2013-10-08 16:02:00,
2013-10-08 12:07:00,59.4,45.0,29.92,West,270,2.0,7.0,59,0.00,,,0.29,Rainwise IP-100,2013-10-08 16:07:00,
2013-10-08 12:12:00,59.7,44.0,29.92,WSW,247,5.0,6.0,56,0.00,,,0.29,Rainwise IP-100,2013-10-08 16:12:00,
2013-10-08 12:17:00,59.4,43.0,29.92,SSW,202,6.0,7.0,55,0.00,,,0.29,Rainwise IP-100,2013-10-08 16:17:00,
2013-10-08 12:22:00,59.2,45.0,29.92,WSW,247,5.0,7.0,59,0.00,,,0.29,Rainwise IP-100,2013-10-08 16:22:00,
2013-10-08 12:27:00,59.3,45.0,29.93,West,270,3.0,6.0,59,0.00,,,0.29,Rainwise IP-100,2013-10-08 16:27:00,
2013-10-08 12:32:00,59.4,44.0,29.93,WSW,247,3.0,6.0,57,0.00,,,0.29,Rainwise IP-100,2013-10-08 16:32:00,
2013-10-08 12:37:00,59.6,46.0,29.92,SW,225,7.0,9.0,60,0.00,,,0.29,Rainwise IP-100,2013-10-08 16:37:00,
2013-10-08 12:42:00,59.6,45.0,29.92,West,270,3.0,9.0,59,0.00,,,0.29,Rainwise IP-100,2013-10-08 16:42:00,
2013-10-08 12:47:00,59.8,44.0,29.93,WNW,292,2.0,8.0,57,0.00,,,0.29,Rainwise IP-100,2013-10-08 16:47:00,
2013-10-08 12:52:00,59.8,42.0,29.93,WSW,247,5.0,9.0,53,0.00,,,0.29,Rainwise IP-100,2013-10-08 16:52:00,
2013-10-08 12:57:00,59.4,43.0,29.94,SW,225,4.0,9.0,54,0.00,,,0.29,Rainwise IP-100,2013-10-08 16:57:00,
2013-10-08 13:02:00,59.4,44.0,29.94,WSW,247,7.0,9.0,57,0.00,,,0.29,Rainwise IP-100,2013-10-08 17:02:00,
2013-10-08 13:07:00,59.4,46.0,29.93,SW,225,2.0,7.0,60,0.00,,,0.29,Rainwise IP-100,2013-10-08 17:07:00,
2013-10-08 13:12:00,59.6,43.0,29.93,WSW,247,3.0,11.0,55,0.00,,,0.29,Rainwise IP-100,2013-10-08 17:12:00,
2013-10-08 13:17:00,60.0,45.0,29.94,NW,315,2.0,8.0,58,0.00,,,0.29,Rainwise IP-100,2013-10-08 17:17:00,
2013-10-08 13:22:00,59.9,44.0,29.94,WSW,247,2.0,7.0,55,0.00,,,0.29,Rainwise IP-100,2013-10-08 17:22:00,
2013-10-08 13:27:00,60.2,43.0,29.94,SSW,202,2.0,6.0,53,0.00,,,0.29,Rainwise IP-100,2013-10-08 17:27:00,
2013-10-08 13:32:00,60.6,44.0,29.94,WSW,247,2.0,10.0,54,0.00,,,0.29,Rainwise IP-100,2013-10-08 17:32:00,
2013-10-08 13:37:00,60.7,43.0,29.94,West,270,4.0,9.0,52,0.00,,,0.29,Rainwise IP-100,2013-10-08 17:37:00,
2013-10-08 13:42:00,60.5,43.0,29.94,West,270,4.0,7.0,53,0.00,,,0.29,Rainwise IP-100,2013-10-08 17:42:00,
2013-10-08 13:47:00,60.3,44.0,29.94,West,270,3.0,9.0,56,0.00,,,0.29,Rainwise IP-100,2013-10-08 17:47:00,
2013-10-08 13:52:00,60.5,44.0,29.94,WSW,247,5.0,7.0,54,0.00,,,0.29,Rainwise IP-100,2013-10-08 17:52:00,
2013-10-08 13:57:00,60.4,46.0,29.94,WNW,292,3.0,9.0,58,0.00,,,0.29,Rainwise IP-100,2013-10-08 17:57:00,
2013-10-08 14:02:00,60.5,44.0,29.94,WSW,247,4.0,8.0,54,0.00,,,0.29,Rainwise IP-100,2013-10-08 18:02:00,
2013-10-08 14:07:00,60.8,44.0,29.94,NNW,337,2.0,6.0,54,0.00,,,0.29,Rainwise IP-100,2013-10-08 18:07:00,
2013-10-08 14:12:00,61.2,43.0,29.95,SSW,202,6.0,7.0,52,0.00,,,0.29,Rainwise IP-100,2013-10-08 18:12:00,
2013-10-08 14:17:00,61.5,43.0,29.95,WSW,247,4.0,6.0,51,0.00,,,0.29,Rainwise IP-100,2013-10-08 18:17:00,
2013-10-08 14:22:00,61.1,44.0,29.96,WSW,247,4.0,7.0,53,0.00,,,0.29,Rainwise IP-100,2013-10-08 18:22:00,
2013-10-08 14:27:00,60.6,43.0,29.96,West,270,3.0,7.0,52,0.00,,,0.29,Rainwise IP-100,2013-10-08 18:27:00,
2013-10-08 14:32:00,60.9,45.0,29.96,WNW,292,4.0,6.0,55,0.00,,,0.29,Rainwise IP-100,2013-10-08 18:32:00,
2013-10-08 14:37:00,61.1,43.0,29.96,West,270,2.0,7.0,52,0.00,,,0.29,Rainwise IP-100,2013-10-08 18:37:00,
2013-10-08 14:42:00,61.6,44.0,29.96,NNW,337,2.0,6.0,52,0.00,,,0.29,Rainwise IP-100,2013-10-08 18:42:00,
2013-10-08 14:47:00,61.7,44.0,29.96,NNW,337,0.0,6.0,52,0.00,,,0.29,Rainwise IP-100,2013-10-08 18:47:00,
2013-10-08 14:52:00,61.8,42.0,29.96,NW,315,1.0,6.0,49,0.00,,,0.29,Rainwise IP-100,2013-10-08 18:52:00,
2013-10-08 14:57:00,61.8,46.0,29.96,WSW,247,4.0,7.0,56,0.00,,,0.29,Rainwise IP-100,2013-10-08 18:57:00,
2013-10-08 15:02:00,61.1,41.0,29.97,West,270,2.0,7.0,48,0.00,,,0.29,Rainwise IP-100,2013-10-08 19:02:00,
2013-10-08 15:07:00,61.4,43.0,29.98,West,270,1.0,4.0,51,0.00,,,0.29,Rainwise IP-100,2013-10-08 19:07:00,
2013-10-08 15:12:00,61.6,45.0,29.98,South,180,1.0,5.0,54,0.00,,,0.29,Rainwise IP-100,2013-10-08 19:12:00,
2013-10-08 15:17:00,61.8,42.0,29.98,WSW,247,2.0,6.0,49,0.00,,,0.29,Rainwise IP-100,2013-10-08 19:17:00,
2013-10-08 15:22:00,61.9,45.0,29.99,WNW,292,1.0,5.0,54,0.00,,,0.29,Rainwise IP-100,2013-10-08 19:22:00,
2013-10-08 15:27:00,61.9,44.0,29.99,WSW,247,4.0,5.0,51,0.00,,,0.29,Rainwise IP-100,2013-10-08 19:27:00,
2013-10-08 15:32:00,61.6,44.0,29.99,SW,225,2.0,7.0,53,0.00,,,0.29,Rainwise IP-100,2013-10-08 19:32:00,
2013-10-08 15:37:00,61.5,45.0,29.99,WSW,247,1.0,7.0,54,0.00,,,0.29,Rainwise IP-100,2013-10-08 19:37:00,
2013-10-08 15:42:00,61.5,44.0,29.99,SSW,202,2.0,7.0,52,0.00,,,0.29,Rainwise IP-100,2013-10-08 19:42:00,
2013-10-08 15:47:00,61.4,43.0,29.98,WSW,247,5.0,6.0,50,0.00,,,0.29,Rainwise IP-100,2013-10-08 19:47:00,
2013-10-08 15:52:00,61.4,43.0,29.98,NNE,22,2.0,6.0,50,0.00,,,0.29,Rainwise IP-100,2013-10-08 19:52:00,
2013-10-08 15:57:00,61.2,44.0,29.98,SW,225,2.0,9.0,53,0.00,,,0.29,Rainwise IP-100,2013-10-08 19:57:00,
2013-10-08 16:02:00,61.4,44.0,29.98,NW,315,4.0,9.0,52,0.00,,,0.29,Rainwise IP-100,2013-10-08 20:02:00,
2013-10-08 16:07:00,61.5,42.0,29.98,NW,315,4.0,7.0,49,0.00,,,0.29,Rainwise IP-100,2013-10-08 20:07:00,
2013-10-08 16:12:00,61.2,44.0,29.99,WSW,247,4.0,7.0,53,0.00,,,0.29,Rainwise IP-100,2013-10-08 20:12:00,
2013-10-08 16:17:00,61.2,45.0,30.00,NNW,337,2.0,7.0,55,0.00,,,0.29,Rainwise IP-100,2013-10-08 20:17:00,
2013-10-08 16:22:00,61.1,43.0,30.00,WNW,292,1.0,6.0,52,0.00,,,0.29,Rainwise IP-100,2013-10-08 20:22:00,
2013-10-08 16:27:00,60.9,43.0,30.00,West,270,1.0,5.0,52,0.00,,,0.29,Rainwise IP-100,2013-10-08 20:27:00,
2013-10-08 16:32:00,61.2,43.0,30.00,SW,225,2.0,3.0,52,0.00,,,0.29,Rainwise IP-100,2013-10-08 20:32:00,
2013-10-08 16:37:00,60.9,42.0,30.00,SW,225,3.0,7.0,50,0.00,,,0.29,Rainwise IP-100,2013-10-08 20:37:00,
2013-10-08 16:42:00,60.7,43.0,30.00,SW,225,4.0,8.0,53,0.00,,,0.29,Rainwise IP-100,2013-10-08 20:42:00,
2013-10-08 16:47:00,60.5,43.0,30.00,WSW,247,4.0,6.0,52,0.00,,,0.29,Rainwise IP-100,2013-10-08 20:47:00,
2013-10-08 16:52:00,60.6,47.0,30.01,North,360,0.0,4.0,62,0.00,,,0.29,Rainwise IP-100,2013-10-08 20:52:00,
2013-10-08 16:57:00,60.7,44.0,30.01,NW,315,2.0,5.0,54,0.00,,,0.29,Rainwise IP-100,2013-10-08 20:57:00,
2013-10-08 17:02:00,60.3,43.0,30.02,NW,315,3.0,7.0,53,0.00,,,0.29,Rainwise IP-100,2013-10-08 21:02:00,
2013-10-08 17:07:00,59.9,45.0,30.02,West,270,2.0,6.0,57,0.00,,,0.29,Rainwise IP-100,2013-10-08 21:07:00,
2013-10-08 17:12:00,59.7,48.0,30.02,NNW,337,0.0,4.0,66,0.00,,,0.29,Rainwise IP-100,2013-10-08 21:12:00,
2013-10-08 17:17:00,59.7,44.0,30.02,SSE,157,1.0,2.0,57,0.00,,,0.29,Rainwise IP-100,2013-10-08 21:17:00,
2013-10-08 17:22:00,59.7,42.0,30.02,ESE,112,0.0,6.0,53,0.00,,,0.29,Rainwise IP-100,2013-10-08 21:22:00,
2013-10-08 17:27:00,59.8,44.0,30.03,NW,315,5.0,5.0,56,0.00,,,0.29,Rainwise IP-100,2013-10-08 21:27:00,
2013-10-08 17:32:00,59.1,43.0,30.03,NE,45,1.0,5.0,56,0.00,,,0.29,Rainwise IP-100,2013-10-08 21:32:00,
2013-10-08 17:37:00,58.5,43.0,30.03,SSW,202,2.0,8.0,55,0.00,,,0.29,Rainwise IP-100,2013-10-08 21:37:00,
2013-10-08 17:42:00,57.8,40.0,30.03,South,180,2.0,8.0,53,0.00,,,0.29,Rainwise IP-100,2013-10-08 21:42:00,
2013-10-08 17:47:00,57.3,42.0,30.04,SW,225,2.0,4.0,57,0.00,,,0.29,Rainwise IP-100,2013-10-08 21:47:00,
2013-10-08 17:52:00,56.6,42.0,30.04,NNW,337,0.0,6.0,59,0.00,,,0.29,Rainwise IP-100,2013-10-08 21:52:00,
2013-10-08 17:57:00,56.0,41.0,30.03,NNE,22,0.0,4.0,58,0.00,,,0.29,Rainwise IP-100,2013-10-08 21:57:00,
2013-10-08 18:02:00,55.6,43.0,30.04,SSW,202,0.0,2.0,62,0.00,,,0.29,Rainwise IP-100,2013-10-08 22:02:00,
2013-10-08 18:07:00,55.1,43.0,30.03,SSW,202,0.0,2.0,63,0.00,,,0.29,Rainwise IP-100,2013-10-08 22:07:00,
2013-10-08 18:12:00,54.5,44.0,30.03,WNW,292,1.0,0.0,68,0.00,,,0.29,Rainwise IP-100,2013-10-08 22:12:00,
2013-10-08 18:17:00,53.6,45.0,30.04,West,270,2.0,2.0,72,0.00,,,0.29,Rainwise IP-100,2013-10-08 22:17:00,
2013-10-08 18:22:00,53.3,43.0,30.04,SW,225,0.0,2.0,71,0.00,,,0.29,Rainwise IP-100,2013-10-08 22:22:00,
2013-10-08 18:27:00,52.8,45.0,30.04,ESE,112,1.0,2.0,74,0.00,,,0.29,Rainwise IP-100,2013-10-08 22:27:00,
2013-10-08 18:32:00,52.4,43.0,30.04,East,90,2.0,2.0,72,0.00,,,0.29,Rainwise IP-100,2013-10-08 22:32:00,
2013-10-08 18:37:00,52.2,44.0,30.04,WNW,292,0.0,2.0,74,0.00,,,0.29,Rainwise IP-100,2013-10-08 22:37:00,
2013-10-08 18:42:00,51.6,46.0,30.04,ESE,112,2.0,2.0,79,0.00,,,0.29,Rainwise IP-100,2013-10-08 22:42:00,
2013-10-08 18:47:00,51.1,44.0,30.04,ESE,112,1.0,2.0,77,0.00,,,0.29,Rainwise IP-100,2013-10-08 22:47:00,
2013-10-08 18:52:00,51.1,44.0,30.04,ESE,112,0.0,2.0,75,0.00,,,0.29,Rainwise IP-100,2013-10-08 22:52:00,
2013-10-08 18:57:00,51.1,45.0,30.04,ESE,112,2.0,2.0,79,0.00,,,0.29,Rainwise IP-100,2013-10-08 22:57:00,
2013-10-08 19:02:00,50.8,43.0,30.04,ESE,112,2.0,2.0,77,0.00,,,0.29,Rainwise IP-100,2013-10-08 23:02:00,
2013-10-08 19:07:00,50.7,44.0,30.04,ESE,112,2.0,2.0,79,0.00,,,0.29,Rainwise IP-100,2013-10-08 23:07:00,
2013-10-08 19:12:00,49.9,45.0,30.04,SE,135,2.0,2.0,84,0.00,,,0.29,Rainwise IP-100,2013-10-08 23:12:00,
2013-10-08 19:17:00,49.3,44.0,30.05,East,90,2.0,3.0,83,0.00,,,0.29,Rainwise IP-100,2013-10-08 23:17:00,
2013-10-08 19:22:00,49.2,45.0,30.04,East,90,2.0,3.0,85,0.00,,,0.29,Rainwise IP-100,2013-10-08 23:22:00,
2013-10-08 19:27:00,49.1,45.0,30.05,East,90,1.0,2.0,86,0.00,,,0.29,Rainwise IP-100,2013-10-08 23:27:00,
2013-10-08 19:32:00,49.1,45.0,30.05,NE,45,2.0,2.0,85,0.00,,,0.29,Rainwise IP-100,2013-10-08 23:32:00,
2013-10-08 19:37:00,49.2,45.0,30.04,ESE,112,1.0,2.0,86,0.00,,,0.29,Rainwise IP-100,2013-10-08 23:37:00,
2013-10-08 19:42:00,48.7,45.0,30.04,ESE,112,1.0,2.0,87,0.00,,,0.29,Rainwise IP-100,2013-10-08 23:42:00,
2013-10-08 19:47:00,48.7,45.0,30.04,East,90,2.0,2.0,85,0.00,,,0.29,Rainwise IP-100,2013-10-08 23:47:00,
2013-10-08 19:52:00,48.7,44.0,30.04,North,360,2.0,2.0,84,0.00,,,0.29,Rainwise IP-100,2013-10-08 23:52:00,
2013-10-08 19:57:00,48.8,44.0,30.04,ENE,67,2.0,2.0,84,0.00,,,0.29,Rainwise IP-100,2013-10-08 23:57:00,
2013-10-08 20:02:00,48.3,45.0,30.04,ESE,112,2.0,3.0,88,0.00,,,0.29,Rainwise IP-100,2013-10-09 00:02:00,
2013-10-08 20:07:00,48.0,44.0,30.05,ESE,112,2.0,2.0,85,0.00,,,0.29,Rainwise IP-100,2013-10-09 00:07:00,
2013-10-08 20:12:00,48.3,43.0,30.06,ESE,112,0.0,2.0,82,0.00,,,0.29,Rainwise IP-100,2013-10-09 00:12:00,
2013-10-08 20:17:00,48.6,44.0,30.05,ESE,112,1.0,2.0,82,0.00,,,0.29,Rainwise IP-100,2013-10-09 00:17:00,
2013-10-08 20:22:00,48.2,44.0,30.05,ESE,112,1.0,2.0,86,0.00,,,0.29,Rainwise IP-100,2013-10-09 00:22:00,
2013-10-08 20:27:00,47.6,43.0,30.05,ESE,112,1.0,2.0,86,0.00,,,0.29,Rainwise IP-100,2013-10-09 00:27:00,
2013-10-08 20:32:00,47.5,43.0,30.06,ESE,112,2.0,2.0,85,0.00,,,0.29,Rainwise IP-100,2013-10-09 00:32:00,
2013-10-08 20:37:00,47.8,42.0,30.06,ESE,112,1.0,2.0,83,0.00,,,0.29,Rainwise IP-100,2013-10-09 00:37:00,
2013-10-08 20:42:00,47.7,42.0,30.07,ESE,112,1.0,2.0,83,0.00,,,0.29,Rainwise IP-100,2013-10-09 00:42:00,
2013-10-08 20:47:00,47.4,43.0,30.07,ESE,112,0.0,2.0,85,0.00,,,0.29,Rainwise IP-100,2013-10-09 00:47:00,
2013-10-08 20:52:00,47.2,43.0,30.07,ESE,112,0.0,0.0,87,0.00,,,0.29,Rainwise IP-100,2013-10-09 00:52:00,
2013-10-08 20:57:00,46.9,43.0,30.07,ESE,112,0.0,2.0,88,0.00,,,0.29,Rainwise IP-100,2013-10-09 00:57:00,
2013-10-08 21:02:00,46.6,44.0,30.07,ESE,112,2.0,2.0,90,0.00,,,0.29,Rainwise IP-100,2013-10-09 01:02:00,
2013-10-08 21:07:00,46.2,43.0,30.07,ESE,112,2.0,2.0,91,0.00,,,0.29,Rainwise IP-100,2013-10-09 01:07:00,
2013-10-08 21:12:00,46.0,43.0,30.07,ESE,112,2.0,2.0,91,0.00,,,0.29,Rainwise IP-100,2013-10-09 01:12:00,
2013-10-08 21:17:00,46.2,43.0,30.07,ESE,112,2.0,2.0,91,0.00,,,0.29,Rainwise IP-100,2013-10-09 01:17:00,
2013-10-08 21:22:00,46.1,43.0,30.07,ESE,112,1.0,2.0,89,0.00,,,0.29,Rainwise IP-100,2013-10-09 01:22:00,
2013-10-08 21:27:00,46.1,43.0,30.08,ESE,112,1.0,2.0,90,0.00,,,0.29,Rainwise IP-100,2013-10-09 01:27:00,
2013-10-08 21:32:00,45.8,43.0,30.08,ESE,112,2.0,3.0,91,0.00,,,0.29,Rainwise IP-100,2013-10-09 01:32:00,
2013-10-08 21:37:00,45.6,44.0,30.08,ESE,112,2.0,2.0,92,0.00,,,0.29,Rainwise IP-100,2013-10-09 01:37:00,
2013-10-08 21:42:00,45.9,43.0,30.08,ESE,112,2.0,2.0,90,0.00,,,0.29,Rainwise IP-100,2013-10-09 01:42:00,
2013-10-08 21:47:00,45.8,43.0,30.08,ESE,112,2.0,2.0,90,0.00,,,0.29,Rainwise IP-100,2013-10-09 01:47:00,
2013-10-08 21:52:00,45.3,42.0,30.09,ESE,112,2.0,2.0,91,0.00,,,0.29,Rainwise IP-100,2013-10-09 01:52:00,
2013-10-08 21:57:00,45.5,43.0,30.09,ESE,112,1.0,2.0,89,0.00,,,0.29,Rainwise IP-100,2013-10-09 01:57:00,
2013-10-08 22:02:00,45.9,43.0,30.08,ESE,112,1.0,2.0,89,0.00,,,0.29,Rainwise IP-100,2013-10-09 02:02:00,
2013-10-08 22:07:00,46.3,41.0,30.07,East,90,1.0,2.0,85,0.00,,,0.29,Rainwise IP-100,2013-10-09 02:07:00,
2013-10-08 22:12:00,46.8,42.0,30.08,NE,45,0.0,2.0,84,0.00,,,0.29,Rainwise IP-100,2013-10-09 02:12:00,
2013-10-08 22:17:00,46.9,42.0,30.08,NNE,22,0.0,2.0,83,0.00,,,0.29,Rainwise IP-100,2013-10-09 02:17:00,
2013-10-08 22:22:00,46.9,42.0,30.08,NNE,22,0.0,0.0,84,0.00,,,0.29,Rainwise IP-100,2013-10-09 02:22:00,
2013-10-08 22:27:00,46.0,43.0,30.08,SE,135,0.0,2.0,90,0.00,,,0.29,Rainwise IP-100,2013-10-09 02:27:00,
2013-10-08 22:32:00,45.0,42.0,30.08,ESE,112,1.0,2.0,90,0.00,,,0.29,Rainwise IP-100,2013-10-09 02:32:00,
2013-10-08 22:37:00,44.9,42.0,30.09,ESE,112,2.0,2.0,90,0.00,,,0.29,Rainwise IP-100,2013-10-09 02:37:00,
2013-10-08 22:42:00,44.8,42.0,30.09,ESE,112,2.0,2.0,91,0.00,,,0.29,Rainwise IP-100,2013-10-09 02:42:00,
2013-10-08 22:47:00,44.0,43.0,30.09,ESE,112,2.0,2.0,95,0.00,,,0.29,Rainwise IP-100,2013-10-09 02:47:00,
2013-10-08 22:52:00,43.4,42.0,30.09,East,90,2.0,3.0,96,0.00,,,0.29,Rainwise IP-100,2013-10-09 02:52:00,
2013-10-08 22:57:00,43.4,42.0,30.10,East,90,0.0,2.0,96,0.00,,,0.29,Rainwise IP-100,2013-10-09 02:57:00,
2013-10-08 23:02:00,43.6,43.0,30.10,East,90,2.0,2.0,96,0.00,,,0.29,Rainwise IP-100,2013-10-09 03:02:00,
2013-10-08 23:07:00,43.8,43.0,30.10,East,90,2.0,2.0,96,0.00,,,0.29,Rainwise IP-100,2013-10-09 03:07:00,
2013-10-08 23:12:00,43.6,43.0,30.10,East,90,2.0,2.0,96,0.00,,,0.29,Rainwise IP-100,2013-10-09 03:12:00,
2013-10-08 23:17:00,43.2,42.0,30.10,East,90,2.0,3.0,96,0.00,,,0.29,Rainwise IP-100,2013-10-09 03:17:00,
2013-10-08 23:22:00,43.2,42.0,30.11,East,90,1.0,2.0,96,0.00,,,0.29,Rainwise IP-100,2013-10-09 03:22:00,
2013-10-08 23:27:00,42.9,42.0,30.11,East,90,2.0,3.0,96,0.00,,,0.29,Rainwise IP-100,2013-10-09 03:27:00,
2013-10-08 23:32:00,42.8,42.0,30.11,East,90,1.0,3.0,96,0.00,,,0.29,Rainwise IP-100,2013-10-09 03:32:00,
2013-10-08 23:37:00,42.8,42.0,30.11,East,90,2.0,2.0,96,0.00,,,0.29,Rainwise IP-100,2013-10-09 03:37:00,
2013-10-08 23:42:00,42.4,41.0,30.11,East,90,2.0,2.0,96,0.00,,,0.29,Rainwise IP-100,2013-10-09 03:42:00,
2013-10-08 23:47:00,41.9,41.0,30.12,East,90,2.0,2.0,96,0.00,,,0.29,Rainwise IP-100,2013-10-09 03:47:00,
2013-10-08 23:52:00,42.1,41.0,30.12,East,90,2.0,2.0,96,0.00,,,0.29,Rainwise IP-100,2013-10-09 03:52:00,
2013-10-08 23:57:00,42.3,41.0,30.12,East,90,2.0,2.0,96,0.00,,,0.29,Rainwise IP-100,2013-10-09 03:57:00,